createdAt,value
2019-05-26T00:01:42.652Z,11.03
2019-05-26T00:04:10.924Z,11.80
2019-05-26T00:06:39.157Z,11.68
2019-05-26T00:09:07.427Z,10.80
2019-05-26T00:11:35.664Z,11.38
2019-05-26T00:14:03.942Z,10.60
2019-05-26T00:16:32.185Z,10.78
2019-05-26T00:19:00.449Z,9.93
2019-05-26T00:21:28.720Z,10.25
2019-05-26T00:23:56.970Z,9.55
2019-05-26T00:26:25.219Z,9.35
2019-05-26T00:28:53.465Z,9.88
2019-05-26T00:31:21.713Z,10.30
2019-05-26T00:33:49.969Z,8.55
2019-05-26T00:36:18.208Z,8.73
2019-05-26T00:38:46.495Z,9.30
2019-05-26T00:41:14.730Z,8.85
2019-05-26T00:43:42.982Z,8.88
2019-05-26T00:46:11.238Z,9.95
2019-05-26T00:48:39.480Z,9.20
2019-05-26T00:51:07.722Z,9.55
2019-05-26T00:53:35.975Z,9.60
2019-05-26T00:56:04.309Z,10.00
2019-05-26T00:58:32.550Z,9.48
2019-05-26T01:01:00.968Z,8.73
2019-05-26T01:03:29.324Z,9.00
2019-05-26T01:05:57.574Z,9.05
2019-05-26T01:08:25.808Z,9.08
2019-05-26T01:10:54.151Z,8.40
2019-05-26T01:13:22.397Z,8.03
2019-05-26T01:15:50.636Z,8.85
2019-05-26T01:18:18.877Z,8.95
2019-05-26T01:20:47.154Z,8.43
2019-05-26T01:23:15.389Z,8.18
2019-05-26T01:25:43.817Z,7.72
2019-05-26T01:28:12.099Z,7.87
2019-05-26T01:30:40.359Z,7.22
2019-05-26T01:33:08.585Z,7.95
2019-05-26T01:35:39.455Z,7.50
2019-05-26T01:38:22.267Z,7.58
2019-05-26T01:40:39.227Z,8.20
2019-05-26T01:43:07.610Z,7.33
2019-05-26T01:45:35.868Z,7.92
2019-05-26T01:48:04.967Z,7.15
2019-05-26T01:50:33.188Z,7.10
2019-05-26T01:53:01.449Z,6.85
2019-05-26T01:55:29.686Z,6.47
2019-05-26T01:57:57.949Z,7.40
2019-05-26T02:00:26.195Z,7.17
2019-05-26T02:02:54.586Z,16.37
2019-05-26T02:05:22.837Z,8.75
2019-05-26T02:07:51.092Z,7.40
2019-05-26T02:10:19.345Z,6.85
2019-05-26T02:12:47.578Z,6.67
2019-05-26T02:15:15.813Z,6.58
2019-05-26T02:17:44.289Z,6.55
2019-05-26T02:20:13.813Z,6.35
2019-05-26T02:22:42.110Z,6.47
2019-05-26T02:25:10.342Z,6.65
2019-05-26T02:27:39.415Z,6.90
2019-05-26T02:30:09.004Z,6.83
2019-05-26T02:32:37.259Z,6.83
2019-05-26T02:35:06.247Z,6.17
2019-05-26T02:37:34.546Z,6.65
2019-05-26T02:40:03.778Z,6.60
2019-05-26T02:42:32.018Z,8.70
2019-05-26T02:45:00.290Z,8.20
2019-05-26T02:47:28.517Z,7.17
2019-05-26T02:49:56.844Z,6.58
2019-05-26T02:52:25.128Z,7.78
2019-05-26T02:54:53.396Z,6.67
2019-05-26T02:57:21.638Z,6.95
2019-05-26T02:59:49.885Z,7.33
2019-05-26T03:02:18.119Z,6.78
2019-05-26T03:04:46.375Z,6.30
2019-05-26T03:07:14.635Z,6.35
2019-05-26T03:09:42.960Z,6.45
2019-05-26T03:12:11.198Z,6.72
2019-05-26T03:14:39.819Z,7.17
2019-05-26T03:17:08.179Z,6.40
2019-05-26T03:19:36.497Z,6.50
2019-05-26T03:22:04.804Z,7.60
2019-05-26T03:24:33.119Z,6.80
2019-05-26T03:27:01.382Z,6.25
2019-05-26T03:29:29.609Z,6.87
2019-05-26T03:31:57.863Z,7.12
2019-05-26T03:34:26.094Z,6.62
2019-05-26T03:36:54.354Z,7.60
2019-05-26T03:39:42.351Z,8.00
2019-05-26T03:41:52.578Z,7.00
2019-05-26T03:44:20.818Z,7.10
2019-05-26T03:46:49.065Z,6.72
2019-05-26T03:49:17.324Z,6.22
2019-05-26T03:51:45.613Z,7.60
2019-05-26T03:54:13.854Z,6.70
2019-05-26T03:56:42.096Z,6.58
2019-05-26T03:59:10.410Z,6.50
2019-05-26T04:01:38.664Z,6.67
2019-05-26T04:04:07.001Z,6.78
2019-05-26T04:06:35.233Z,7.92
2019-05-26T04:09:05.090Z,9.53
2019-05-26T04:11:33.355Z,7.62
2019-05-26T04:14:01.602Z,6.00
2019-05-26T04:16:29.857Z,6.83
2019-05-26T04:18:58.115Z,7.55
2019-05-26T04:21:26.373Z,6.75
2019-05-26T04:23:54.606Z,6.97
2019-05-26T04:26:22.854Z,7.40
2019-05-26T04:28:51.085Z,6.75
2019-05-26T04:31:19.329Z,6.75
2019-05-26T04:33:47.577Z,6.37
2019-05-26T04:36:15.817Z,5.83
2019-05-26T04:38:44.068Z,6.17
2019-05-26T04:41:12.318Z,5.72
2019-05-26T04:43:40.574Z,6.42
2019-05-26T04:46:08.839Z,6.78
2019-05-26T04:48:37.075Z,5.97
2019-05-26T04:51:05.328Z,6.65
2019-05-26T04:53:33.569Z,6.10
2019-05-26T04:56:01.826Z,6.05
2019-05-26T04:58:30.082Z,5.83
2019-05-26T05:00:58.335Z,6.20
2019-05-26T05:03:26.577Z,6.10
2019-05-26T05:05:54.819Z,5.78
2019-05-26T05:08:23.064Z,6.08
2019-05-26T05:10:51.298Z,6.80
2019-05-26T05:13:19.578Z,7.05
2019-05-26T05:15:47.878Z,6.92
2019-05-26T05:18:16.141Z,6.53
2019-05-26T05:20:44.386Z,6.00
2019-05-26T05:23:12.645Z,6.40
2019-05-26T05:25:40.880Z,6.28
2019-05-26T05:28:09.144Z,5.90
2019-05-26T05:30:37.373Z,5.65
2019-05-26T05:33:05.626Z,5.95
2019-05-26T05:35:33.888Z,5.90
2019-05-26T05:38:02.130Z,5.58
2019-05-26T05:40:30.403Z,6.30
2019-05-26T05:42:58.670Z,5.80
2019-05-26T05:45:26.925Z,6.47
2019-05-26T05:47:55.180Z,6.17
2019-05-26T05:50:23.429Z,5.50
2019-05-26T05:52:51.669Z,5.87
2019-05-26T05:55:21.692Z,6.40
2019-05-26T05:57:50.002Z,6.20
2019-05-26T06:00:18.333Z,5.67
2019-05-26T06:02:46.578Z,6.40
2019-05-26T06:05:14.823Z,5.67
2019-05-26T06:07:43.137Z,7.00
2019-05-26T06:10:11.401Z,7.15
2019-05-26T06:12:39.645Z,5.83
2019-05-26T06:15:10.784Z,6.28
2019-05-26T06:17:39.017Z,6.80
2019-05-26T06:20:07.290Z,6.45
2019-05-26T06:22:35.549Z,6.25
2019-05-26T06:25:05.048Z,6.28
2019-05-26T06:27:33.274Z,6.75
2019-05-26T06:30:01.626Z,5.90
2019-05-26T06:32:29.849Z,5.75
2019-05-26T06:34:58.112Z,5.33
2019-05-26T06:37:26.381Z,5.60
2019-05-26T06:39:54.607Z,6.15
2019-05-26T06:42:22.857Z,5.70
2019-05-26T06:44:53.816Z,6.03
2019-05-26T06:47:21.137Z,5.50
2019-05-26T06:49:49.356Z,5.72
2019-05-26T06:52:17.609Z,5.10
2019-05-26T06:54:45.853Z,5.58
2019-05-26T06:57:14.109Z,5.80
2019-05-26T06:59:42.349Z,5.33
2019-05-26T07:02:10.650Z,4.92
2019-05-26T07:04:38.982Z,5.05
2019-05-26T07:07:07.244Z,4.83
2019-05-26T07:09:35.481Z,5.55
2019-05-26T07:12:03.732Z,5.25
2019-05-26T07:14:31.971Z,4.53
2019-05-26T07:17:00.234Z,4.72
2019-05-26T07:19:28.521Z,4.83
2019-05-26T07:21:56.761Z,5.03
2019-05-26T07:24:29.211Z,5.10
2019-05-26T07:26:54.997Z,5.67
2019-05-26T07:29:23.250Z,5.33
2019-05-26T07:31:51.508Z,5.78
2019-05-26T07:34:19.740Z,6.62
2019-05-26T07:36:47.997Z,7.40
2019-05-26T07:39:16.244Z,8.18
2019-05-26T07:41:44.508Z,8.18
2019-05-26T07:44:12.767Z,8.08
2019-05-26T07:46:41.011Z,8.38
2019-05-26T07:49:09.306Z,7.37
2019-05-26T07:51:37.529Z,7.72
2019-05-26T07:54:05.837Z,7.50
2019-05-26T07:56:34.075Z,7.85
2019-05-26T07:59:02.356Z,8.38
2019-05-26T08:01:36.080Z,7.62
2019-05-26T08:04:00.606Z,7.42
2019-05-26T08:06:28.816Z,6.30
2019-05-26T08:08:57.109Z,7.28
2019-05-26T08:11:25.356Z,7.08
2019-05-26T08:13:53.609Z,6.75
2019-05-26T08:16:21.856Z,6.53
2019-05-26T08:18:50.140Z,6.45
2019-05-26T08:21:18.393Z,6.78
2019-05-26T08:23:46.661Z,6.85
2019-05-26T08:26:14.891Z,5.78
2019-05-26T08:28:43.167Z,5.80
2019-05-26T08:31:13.392Z,5.37
2019-05-26T08:33:41.375Z,5.65
2019-05-26T08:36:09.667Z,5.92
2019-05-26T08:38:37.958Z,5.60
2019-05-26T08:41:06.193Z,5.58
2019-05-26T08:43:34.523Z,6.28
2019-05-26T08:46:02.775Z,5.60
2019-05-26T08:48:31.015Z,6.05
2019-05-26T08:50:59.271Z,5.83
2019-05-26T08:53:27.516Z,5.45
2019-05-26T08:55:55.795Z,5.22
2019-05-26T08:58:24.110Z,6.12
2019-05-26T09:00:52.389Z,5.80
2019-05-26T09:03:20.621Z,5.95
2019-05-26T09:05:48.881Z,5.10
2019-05-26T09:08:17.128Z,4.60
2019-05-26T09:10:45.401Z,4.72
2019-05-26T09:13:13.634Z,4.92
2019-05-26T09:15:42.928Z,4.50
2019-05-26T09:18:11.162Z,4.28
2019-05-26T09:20:39.459Z,4.97
2019-05-26T09:23:07.686Z,4.45
2019-05-26T09:25:36.024Z,4.50
2019-05-26T09:28:04.275Z,3.87
2019-05-26T09:30:32.532Z,4.37
2019-05-26T09:33:00.772Z,4.10
2019-05-26T09:35:29.032Z,4.75
2019-05-26T09:37:57.309Z,4.37
2019-05-26T09:40:25.611Z,5.03
2019-05-26T09:42:53.862Z,4.60
2019-05-26T09:45:22.110Z,4.08
2019-05-26T09:47:50.390Z,4.28
2019-05-26T09:50:18.621Z,4.65
2019-05-26T09:52:46.911Z,4.65
2019-05-26T09:55:15.223Z,4.65
2019-05-26T09:57:43.494Z,4.67
2019-05-26T10:00:15.219Z,5.35
2019-05-26T10:02:42.046Z,4.33
2019-05-26T10:05:10.253Z,3.90
2019-05-26T10:07:38.508Z,4.10
2019-05-26T10:10:07.285Z,3.90
2019-05-26T10:12:35.543Z,3.85
2019-05-26T10:15:05.218Z,3.87
2019-05-26T10:17:33.473Z,4.10
2019-05-26T10:20:01.711Z,3.85
2019-05-26T10:22:30.057Z,3.62
2019-05-26T10:24:58.296Z,4.92
2019-05-26T10:27:26.552Z,4.83
2019-05-26T10:29:54.824Z,4.10
2019-05-26T10:32:23.072Z,3.77
2019-05-26T10:34:51.334Z,3.70
2019-05-26T10:37:19.569Z,4.15
2019-05-26T10:39:47.840Z,3.87
2019-05-26T10:42:16.062Z,4.40
2019-05-26T10:44:44.331Z,4.08
2019-05-26T10:47:12.581Z,4.30
2019-05-26T10:49:40.842Z,3.62
2019-05-26T10:52:09.086Z,3.77
2019-05-26T10:54:37.338Z,3.58
2019-05-26T10:57:05.590Z,3.77
2019-05-26T10:59:33.842Z,3.45
2019-05-26T11:02:02.191Z,3.87
2019-05-26T11:04:30.453Z,4.15
2019-05-26T11:06:58.708Z,4.40
2019-05-26T11:09:26.962Z,5.00
2019-05-26T11:11:55.212Z,4.80
2019-05-26T11:14:23.454Z,4.65
2019-05-26T11:16:51.729Z,4.70
2019-05-26T11:19:20.017Z,3.85
2019-05-26T11:21:48.270Z,3.60
2019-05-26T11:24:16.503Z,4.03
2019-05-26T11:26:46.376Z,3.33
2019-05-26T11:29:14.612Z,3.25
2019-05-26T11:31:42.981Z,2.80
2019-05-26T11:34:11.295Z,2.92
2019-05-26T11:36:39.738Z,2.70
2019-05-26T11:39:08.172Z,2.47
2019-05-26T11:41:36.473Z,2.52
2019-05-26T11:44:17.032Z,2.30
2019-05-26T11:46:34.771Z,2.35
2019-05-26T11:49:03.020Z,2.92
2019-05-26T11:51:31.290Z,2.50
2019-05-26T11:53:59.531Z,2.67
2019-05-26T11:56:27.856Z,2.70
2019-05-26T11:58:56.098Z,2.55
2019-05-26T12:01:24.417Z,2.67
2019-05-26T12:03:52.693Z,2.20
2019-05-26T12:06:20.961Z,2.50
2019-05-26T12:08:49.210Z,2.85
2019-05-26T12:11:17.490Z,2.45
2019-05-26T12:13:45.730Z,2.85
2019-05-26T12:16:14.006Z,2.83
2019-05-26T12:18:42.309Z,3.22
2019-05-26T12:21:10.558Z,3.08
2019-05-26T12:23:38.805Z,3.35
2019-05-26T12:26:07.078Z,3.55
2019-05-26T12:28:35.338Z,2.98
2019-05-26T12:31:03.597Z,3.65
2019-05-26T12:33:31.864Z,3.12
2019-05-26T12:36:00.112Z,3.10
2019-05-26T12:38:28.365Z,3.92
2019-05-26T12:40:56.605Z,3.35
2019-05-26T12:43:24.866Z,3.75
2019-05-26T12:45:53.112Z,3.40
2019-05-26T12:48:21.387Z,2.80
2019-05-26T12:50:49.632Z,3.37
2019-05-26T12:53:17.881Z,3.67
2019-05-26T12:55:46.110Z,3.55
2019-05-26T12:58:14.413Z,4.33
2019-05-26T13:00:48.761Z,3.50
2019-05-26T13:03:12.676Z,4.00
2019-05-26T13:05:40.982Z,4.00
2019-05-26T13:08:09.238Z,3.10
2019-05-26T13:10:37.487Z,3.37
2019-05-26T13:13:05.834Z,3.87
2019-05-26T13:15:34.065Z,3.30
2019-05-26T13:18:02.321Z,3.45
2019-05-26T13:20:30.619Z,3.55
2019-05-26T13:22:58.881Z,3.17
2019-05-26T13:25:27.129Z,3.02
2019-05-26T13:27:55.392Z,3.42
2019-05-26T13:30:24.697Z,3.12
2019-05-26T13:32:52.929Z,3.12
2019-05-26T13:35:21.202Z,2.87
2019-05-26T13:37:49.457Z,2.70
2019-05-26T13:40:17.719Z,2.30
2019-05-26T13:42:45.945Z,2.45
2019-05-26T13:45:22.484Z,2.60
2019-05-26T13:47:45.899Z,2.58
2019-05-26T13:50:15.524Z,2.57
2019-05-26T13:52:43.824Z,2.47
2019-05-26T13:55:12.156Z,2.72
2019-05-26T13:57:40.409Z,2.20
2019-05-26T14:00:10.519Z,2.10
2019-05-26T14:02:38.789Z,3.08
2019-05-26T14:05:10.238Z,2.20
2019-05-26T14:07:38.470Z,2.75
2019-05-26T14:10:06.795Z,2.35
2019-05-26T14:12:35.021Z,2.58
2019-05-26T14:15:04.533Z,2.08
2019-05-26T14:17:33.037Z,2.20
2019-05-26T14:20:01.300Z,2.58
2019-05-26T14:22:29.607Z,2.42
2019-05-26T14:24:57.860Z,2.52
2019-05-26T14:27:26.128Z,2.27
2019-05-26T14:29:54.366Z,2.02
2019-05-26T14:32:22.625Z,2.10
2019-05-26T14:34:50.897Z,2.02
2019-05-26T14:37:19.142Z,1.67
2019-05-26T14:39:49.992Z,1.57
2019-05-26T14:42:17.372Z,1.30
2019-05-26T14:44:45.613Z,1.45
2019-05-26T14:47:13.887Z,1.50
2019-05-26T14:49:42.201Z,1.25
2019-05-26T14:52:10.457Z,1.17
2019-05-26T14:54:38.704Z,1.40
2019-05-26T14:57:06.976Z,1.20
2019-05-26T14:59:35.214Z,1.25
2019-05-26T15:02:03.464Z,1.20
2019-05-26T15:04:31.709Z,1.40
2019-05-26T15:06:59.969Z,1.20
2019-05-26T15:09:28.201Z,1.57
2019-05-26T15:11:56.458Z,1.65
2019-05-26T15:14:24.765Z,1.20
2019-05-26T15:16:53.047Z,1.15
2019-05-26T15:19:21.322Z,1.30
2019-05-26T15:21:49.703Z,1.07
2019-05-26T15:24:17.956Z,1.20
2019-05-26T15:26:46.197Z,1.35
2019-05-26T15:29:14.473Z,1.17
2019-05-26T15:31:42.709Z,1.35
2019-05-26T15:34:10.976Z,1.02
2019-05-26T15:36:39.208Z,1.30
2019-05-26T15:39:07.547Z,0.98
2019-05-26T15:41:35.769Z,1.07
2019-05-26T15:44:04.046Z,1.00
2019-05-26T15:46:32.365Z,0.90
2019-05-26T15:49:00.610Z,1.05
2019-05-26T15:51:28.846Z,1.07
2019-05-26T15:53:57.241Z,1.07
2019-05-26T15:56:25.481Z,0.90
2019-05-26T15:58:53.824Z,1.00
2019-05-26T16:01:22.054Z,1.00
2019-05-26T16:03:50.332Z,1.02
2019-05-26T16:06:18.592Z,1.15
2019-05-26T16:08:46.827Z,0.78
2019-05-26T16:11:15.084Z,1.17
2019-05-26T16:13:43.410Z,1.12
2019-05-26T16:16:11.703Z,1.30
2019-05-26T16:18:39.934Z,1.20
2019-05-26T16:21:24.798Z,1.12
2019-05-26T16:23:38.205Z,1.35
2019-05-26T16:26:06.486Z,1.00
2019-05-26T16:28:34.798Z,1.27
2019-05-26T16:31:03.126Z,1.02
2019-05-26T16:33:31.381Z,1.07
2019-05-26T16:35:59.668Z,1.20
2019-05-26T16:38:27.893Z,0.93
2019-05-26T16:40:56.151Z,1.25
2019-05-26T16:43:24.414Z,1.00
2019-05-26T16:45:56.311Z,1.00
2019-05-26T16:48:22.680Z,1.10
2019-05-26T16:50:50.954Z,0.90
2019-05-26T16:53:19.194Z,1.00
2019-05-26T16:55:47.446Z,0.82
2019-05-26T16:58:15.754Z,1.15
2019-05-26T17:00:44.038Z,0.82
2019-05-26T17:03:12.277Z,1.00
2019-05-26T17:05:40.554Z,1.15
2019-05-26T17:08:08.818Z,0.80
2019-05-26T17:10:37.067Z,0.80
2019-05-26T17:13:05.298Z,0.98
2019-05-26T17:15:33.530Z,1.00
2019-05-26T17:18:01.814Z,1.00
2019-05-26T17:20:30.095Z,0.98
2019-05-26T17:22:58.411Z,1.00
2019-05-26T17:25:26.673Z,0.90
2019-05-26T17:27:54.987Z,0.90
2019-05-26T17:30:23.219Z,1.02
2019-05-26T17:32:51.490Z,0.80
2019-05-26T17:35:19.806Z,0.78
2019-05-26T17:37:48.113Z,0.90
2019-05-26T17:40:16.809Z,0.80
2019-05-26T17:42:45.084Z,0.80
2019-05-26T17:45:13.326Z,0.80
2019-05-26T17:47:41.585Z,0.78
2019-05-26T17:50:11.477Z,0.90
2019-05-26T17:52:39.740Z,0.78
2019-05-26T17:55:08.458Z,0.95
2019-05-26T17:57:37.270Z,0.70
2019-05-26T18:00:10.524Z,0.80
2019-05-26T18:02:38.819Z,1.00
2019-05-26T18:05:07.100Z,1.10
2019-05-26T18:07:35.421Z,1.00
2019-05-26T18:10:07.629Z,0.90
2019-05-26T18:12:35.935Z,1.05
2019-05-26T18:15:06.854Z,1.30
2019-05-26T18:17:46.357Z,1.40
2019-05-26T18:20:06.024Z,1.27
2019-05-26T18:22:34.366Z,1.10
2019-05-26T18:25:02.700Z,1.20
2019-05-26T18:27:30.947Z,0.80
2019-05-26T18:29:59.224Z,1.17
2019-05-26T18:32:27.470Z,1.37
2019-05-26T18:34:55.742Z,1.42
2019-05-26T18:37:23.971Z,1.00
2019-05-26T18:39:52.243Z,1.10
2019-05-26T18:42:20.486Z,1.10
2019-05-26T18:44:48.823Z,1.30
2019-05-26T18:47:17.078Z,1.00
2019-05-26T18:49:45.340Z,1.00
2019-05-26T18:52:13.607Z,1.30
2019-05-26T18:54:41.890Z,1.37
2019-05-26T18:57:10.135Z,0.98
2019-05-26T18:59:38.433Z,1.12
2019-05-26T19:02:06.666Z,1.00
2019-05-26T19:04:34.940Z,1.17
2019-05-26T19:07:03.212Z,1.20
2019-05-26T19:09:31.482Z,0.93
2019-05-26T19:11:59.719Z,1.17
2019-05-26T19:14:27.985Z,1.20
2019-05-26T19:16:56.230Z,1.15
2019-05-26T19:19:24.565Z,1.00
2019-05-26T19:21:52.843Z,1.40
2019-05-26T19:24:21.194Z,1.00
2019-05-26T19:26:49.455Z,0.95
2019-05-26T19:29:17.706Z,1.07
2019-05-26T19:31:45.975Z,1.10
2019-05-26T19:34:14.236Z,0.93
2019-05-26T19:36:42.504Z,1.25
2019-05-26T19:39:10.820Z,0.98
2019-05-26T19:41:39.527Z,1.25
2019-05-26T19:44:08.473Z,1.15
2019-05-26T19:46:36.772Z,1.07
2019-05-26T19:49:05.045Z,1.10
2019-05-26T19:51:33.392Z,1.10
2019-05-26T19:54:01.640Z,0.98
2019-05-26T19:56:29.911Z,1.10
2019-05-26T19:58:58.150Z,1.05
2019-05-26T20:01:26.430Z,1.10
2019-05-26T20:03:54.687Z,1.20
2019-05-26T20:06:23.013Z,1.10
2019-05-26T20:08:51.261Z,1.12
2019-05-26T20:11:19.581Z,1.12
2019-05-26T20:13:47.803Z,1.20
2019-05-26T20:16:16.058Z,1.07
2019-05-26T20:18:44.359Z,1.17
2019-05-26T20:21:12.645Z,0.90
2019-05-26T20:23:40.896Z,1.10
2019-05-26T20:26:09.157Z,0.95
2019-05-26T20:28:37.400Z,1.25
2019-05-26T20:31:05.647Z,1.47
2019-05-26T20:33:33.888Z,1.02
2019-05-26T20:36:02.175Z,1.45
2019-05-26T20:38:33.401Z,1.25
2019-05-26T20:41:01.644Z,1.32
2019-05-26T20:43:29.906Z,1.30
2019-05-26T20:45:58.162Z,1.15
2019-05-26T20:48:26.484Z,1.27
2019-05-26T20:50:54.786Z,1.07
2019-05-26T20:53:23.221Z,0.90
2019-05-26T20:55:51.465Z,1.20
2019-05-26T20:58:19.705Z,1.40
2019-05-26T21:00:47.941Z,1.22
2019-05-26T21:03:16.196Z,1.20
2019-05-26T21:05:44.700Z,1.27
2019-05-26T21:08:12.961Z,1.17
2019-05-26T21:10:41.197Z,1.27
2019-05-26T21:13:09.478Z,1.25
2019-05-26T21:15:37.703Z,1.32
2019-05-26T21:18:05.977Z,1.30
2019-05-26T21:20:34.386Z,1.35
2019-05-26T21:23:02.646Z,1.50
2019-05-26T21:25:30.958Z,1.30
2019-05-26T21:27:59.241Z,1.60
2019-05-26T21:30:27.457Z,1.30
2019-05-26T21:32:55.773Z,1.55
2019-05-26T21:35:24.037Z,1.32
2019-05-26T21:37:52.274Z,1.37
2019-05-26T21:40:20.544Z,1.40
2019-05-26T21:42:48.765Z,1.40
2019-05-26T21:45:17.013Z,1.52
2019-05-26T21:47:45.283Z,1.10
2019-05-26T21:50:14.593Z,1.15
2019-05-26T21:52:43.179Z,1.42
2019-05-26T21:55:11.548Z,1.42
2019-05-26T21:57:39.802Z,1.60
2019-05-26T22:00:11.265Z,1.40
2019-05-26T22:02:39.910Z,1.50
2019-05-26T22:05:08.156Z,1.25
2019-05-26T22:07:36.410Z,1.70
2019-05-26T22:10:05.537Z,1.62
2019-05-26T22:12:33.788Z,1.47
2019-05-26T22:15:02.091Z,1.70
2019-05-26T22:17:30.426Z,1.52
2019-05-26T22:19:58.693Z,1.57
2019-05-26T22:22:26.956Z,1.57
2019-05-26T22:24:55.197Z,1.27
2019-05-26T22:27:23.500Z,1.20
2019-05-26T22:29:51.778Z,1.50
2019-05-26T22:32:20.030Z,1.62
2019-05-26T22:34:48.296Z,1.25
2019-05-26T22:37:16.595Z,1.42
2019-05-26T22:39:44.884Z,1.70
2019-05-26T22:42:13.131Z,1.45
2019-05-26T22:44:41.354Z,1.65
2019-05-26T22:47:09.623Z,1.65
2019-05-26T22:49:37.864Z,1.30
2019-05-26T22:52:06.175Z,1.50
2019-05-26T22:54:34.397Z,1.30
2019-05-26T22:57:02.664Z,1.42
2019-05-26T22:59:30.900Z,1.70
2019-05-26T23:01:59.138Z,1.40
2019-05-26T23:04:27.378Z,1.40
2019-05-26T23:06:55.636Z,1.52
2019-05-26T23:09:23.886Z,1.45
2019-05-26T23:11:52.194Z,1.52
2019-05-26T23:14:20.427Z,1.72
2019-05-26T23:16:48.707Z,1.60
2019-05-26T23:19:19.802Z,1.65
2019-05-26T23:21:47.057Z,1.52
2019-05-26T23:24:15.349Z,1.80
2019-05-26T23:26:43.638Z,1.60
2019-05-26T23:29:11.972Z,1.37
2019-05-26T23:31:40.202Z,1.50
2019-05-26T23:34:08.452Z,1.50
2019-05-26T23:36:36.702Z,1.35
2019-05-26T23:39:06.446Z,1.50
2019-05-26T23:41:35.145Z,1.57
2019-05-26T23:44:03.478Z,1.42
2019-05-26T23:46:31.727Z,1.52
2019-05-26T23:49:00.018Z,1.45
2019-05-26T23:51:28.258Z,1.60
2019-05-26T23:53:56.600Z,1.60
2019-05-26T23:56:24.817Z,1.90
2019-05-26T23:58:53.074Z,1.70
